Flight Track Log - Related Links

Times and Time Zones

All times are in EDT time to prevent confusion due to time zone crossing. See the EGF3165 flight status page for this flight to view local times or setup timezone preferences in your user account.

Time Position Orientation Groundspeed Altitude Reporting Facility
EDT Latitude Longitude Course Direction KTS MPH feet Rate Location/Type
Tue 09:10:30 PM 41.9833 -87.8667 346° North 162 186 1,800  Level Chicago TRACON
Tue 09:12:03 PM 41.9911 -87.7603 84° East 250 288 5,100 2,477 Climbing Chicago Center
Tue 09:13:00 PM 42.3800 -87.8631 346° North  Level Estimated
Tue 09:13:05 PM 42.0658 -87.7542 North 277 319 8,200  Level Chicago Center
Tue 09:14:00 PM 42.4666 -87.9307 330° Northwest  Level FlightAware Approximate
Tue 09:14:07 PM 42.1636 -87.7569 359° North 295 339 10,600  Level Chicago Center
Tue 09:15:00 PM 42.5661 -87.9179 346° North  Level Estimated
Tue 09:15:09 PM 42.2536 -87.7614 358° North 326 375 11,700  Level Chicago Center
Tue 09:16:11 PM 42.3483 -87.7669 358° North 354 407 13,100 1,415 Climbing Chicago Center
Tue 09:17:12 PM 42.4500 -87.7731 357° North 363 418 14,600 1,561 Climbing Chicago Center
Tue 09:18:14 PM 42.5731 -87.7642 North 368 423 16,300 1,548 Climbing Chicago Center
Tue 09:19:16 PM 42.6764 -87.7494 North 372 428 17,800 1,355 Climbing Chicago Center
Tue 09:20:18 PM 42.7806 -87.7411 North 375 432 19,100 1,355 Climbing Chicago Center
Tue 09:21:20 PM 42.8864 -87.7308 North 381 438 20,600 1,452 Climbing Chicago Center
Tue 09:22:22 PM 42.9942 -87.7219 North 388 447 22,100 1,403 Climbing Chicago Center
Tue 09:23:24 PM 43.1025 -87.7117 North 392 451 23,500 1,258 Climbing Chicago Center
Tue 09:24:26 PM 43.2344 -87.6992 North 398 458 24,700 1,065 Climbing Chicago Center
Tue 09:25:28 PM 43.3486 -87.6889 North 408 470 25,700 927 Climbing Chicago Center
Tue 09:26:29 PM 43.4636 -87.6781 North 413 475 26,600 927 Climbing Chicago Center
Tue 09:27:31 PM 43.5778 -87.6672 North 414 476 27,600 968 Climbing Chicago Center
Tue 09:28:33 PM 43.6925 -87.6575 North 415 478 28,600 677 Climbing Chicago Center
Tue 09:29:35 PM 43.8322 -87.6444 North 421 484 29,000 194 Climbing Chicago Center
Tue 09:30:37 PM 43.9539 -87.6339 North 436 502 29,000  Level Chicago Center
Tue 09:31:39 PM 44.0792 -87.6217 North 449 517 29,000  Level Chicago Center
Tue 09:32:41 PM 44.2072 -87.6086 North 460 529 29,000  Level Chicago Center
Tue 09:33:42 PM 44.3369 -87.5972 North 466 536 29,000  Level Chicago Center
Tue 09:34:44 PM 44.4694 -87.5844 North 458 527 29,000  Level Chicago Center
Tue 09:35:46 PM 44.5944 -87.5733 North 452 520 29,000  Level Chicago Center
Tue 09:36:48 PM 44.7181 -87.5597 North 446 513 29,000  Level Chicago Center
Tue 09:38:07 PM 44.8908 -87.5433 North 445 512 29,000  Level Minneapolis Center
Tue 09:39:11 PM 45.0133 -87.5294 North 444 511 29,000 -1,008 Level Minneapolis Center
Tue 09:40:12 PM 45.1378 -87.5169 North 445 512 26,900 -2,683 Descending Minneapolis Center
Tue 09:41:14 PM 45.2881 -87.5028 North 451 519 23,500 -3,024 Descending Minneapolis Center
Tue 09:42:15 PM 45.4131 -87.4894 North 449 517 20,700 -2,656 Descending Minneapolis Center
Tue 09:43:16 PM 45.5292 -87.4761 North 426 490 18,100 -2,488 Descending Minneapolis Center
Tue 09:44:18 PM 45.6444 -87.4656 North 409 471 15,600 -2,341 Descending Minneapolis Center
Tue 09:45:19 PM 45.7572 -87.4514 North 400 460 13,300 -1,869 Descending Minneapolis Center
Tue 09:46:20 PM 45.8644 -87.4331 North 382 440 11,800 -1,024 Descending Minneapolis Center
Tue 09:47:22 PM 45.9608 -87.4169 North 342 394 11,200 -1,122 Descending Minneapolis Center
Tue 09:48:23 PM 46.0431 -87.3997 North 295 339 9,500 -1,918 Descending Minneapolis Center
Tue 09:49:24 PM 46.1261 -87.3769 11° North 300 345 7,300 -2,016 Descending Minneapolis Center
Tue 09:50:25 PM 46.2058 -87.3581 North 286 329 5,400 -1,805 Descending Minneapolis Center
Tue 09:51:27 PM 46.2861 -87.3525 North 284 327 3,600 -1,268 Descending Minneapolis Center
Tue 09:52:28 PM 46.3644 -87.3356 North 263 303 2,800 -590 Descending Minneapolis Center
Tue 09:53:29 PM 46.4142 -87.3508 348° North 184 212 2,400 -492 Descending Minneapolis Center
Tue 09:54:30 PM 46.3944 -87.3853 230° Southwest 125 144 1,800 -590 Descending Minneapolis Center

Login

Don't have an account? Register now (free) for customized features, flight alerts, and more!